Time;durP1;ratioP1;P1;durP2;ratioP2;P2;SDS_P1;SDS_P2;PMS_P1;PMS_P2;Temp;Humidity;BMP_temperature;BMP_pressure;BME280_temperature;BME280_humidity;BME280_pressure;Samples;Min_cycle;Max_cycle;Signal;HPM_P1;HPM_P2
2022/12/09 00:01:16;;;;;;;0.95;0.95;;;;;;;-6.26;92.50;99748.91;4841616;29;20056;-83
2022/12/09 00:03:43;;;;;;;0.75;0.75;;;;;;;-6.26;92.35;99758.59;4841047;29;20050;-82
2022/12/09 00:06:15;;;;;;;0.80;0.80;;;;;;;-6.27;92.38;99757.75;4840969;29;20493;-84
2022/12/09 00:08:43;;;;;;;0.80;0.80;;;;;;;-6.27;92.27;99757.75;4824602;29;20092;-84
2022/12/09 00:11:10;;;;;;;0.85;0.85;;;;;;;-6.28;92.62;99760.50;4840824;29;20144;-86
2022/12/09 00:13:37;;;;;;;0.70;0.70;;;;;;;-6.26;92.43;99759.41;4840604;29;20056;-82
2022/12/09 00:16:12;;;;;;;0.80;0.80;;;;;;;-6.26;92.33;99763.84;4825000;29;20057;-85
2022/12/09 00:18:40;;;;;;;0.85;0.85;;;;;;;-6.29;92.31;99758.81;4839911;29;20114;-87
2022/12/09 00:21:18;;;;;;;0.80;0.80;;;;;;;-6.31;92.47;99756.31;4841811;29;20069;-86
2022/12/09 00:23:46;;;;;;;1.00;1.00;;;;;;;-6.38;92.46;99755.97;4824430;29;20061;-82
2022/12/09 00:26:14;;;;;;;1.00;1.00;;;;;;;-6.26;92.55;99748.06;4840863;29;20056;-83
2022/12/09 00:28:42;;;;;;;0.88;0.88;;;;;;;-6.24;92.61;99768.03;4840445;29;20057;-82
2022/12/09 00:31:13;;;;;;;0.70;0.70;;;;;;;-6.21;92.59;99764.31;4840170;29;20058;-81
2022/12/09 00:33:40;;;;;;;1.00;1.00;;;;;;;-6.20;92.62;99756.31;4855862;29;20072;-81
2022/12/09 00:36:14;;;;;;;0.88;0.88;;;;;;;-6.16;92.40;99749.03;4860799;29;20049;-82
2022/12/09 00:38:41;;;;;;;1.00;1.00;;;;;;;-6.19;92.28;99758.00;4871474;29;20106;-83
2022/12/09 00:41:09;;;;;;;0.80;0.80;;;;;;;-6.21;92.10;99753.81;4843197;29;20049;-83
2022/12/09 00:43:36;;;;;;;0.82;0.82;;;;;;;-6.24;92.33;99751.44;4839022;29;20046;-81
2022/12/09 00:46:04;;;;;;;0.90;0.90;;;;;;;-6.21;92.41;99752.00;4840392;29;20073;-81
2022/12/09 00:48:37;;;;;;;1.00;1.00;;;;;;;-6.16;92.46;99752.50;4840095;29;20145;-81
2022/12/09 00:51:06;;;;;;;0.80;0.80;;;;;;;-6.13;92.46;99757.53;4854528;29;20068;-84
2022/12/09 00:53:33;;;;;;;0.80;0.80;;;;;;;-6.07;92.18;99763.25;4840218;29;20107;-84
2022/12/09 00:56:00;;;;;;;0.77;0.77;;;;;;;-6.04;92.31;99763.00;4841071;29;20062;-85
2022/12/09 00:58:27;;;;;;;0.80;0.80;;;;;;;-6.08;91.90;99767.66;4824871;29;20532;-85
2022/12/09 01:00:54;;;;;;;0.95;0.95;;;;;;;-6.11;92.28;99767.91;4840845;29;20050;-83
2022/12/09 01:03:22;;;;;;;0.90;0.90;;;;;;;-6.08;92.29;99765.03;4824174;29;20049;-82
2022/12/09 01:05:50;;;;;;;0.80;0.80;;;;;;;-6.04;92.43;99763.00;4825427;29;20061;-86
2022/12/09 01:08:17;;;;;;;0.80;0.80;;;;;;;-6.04;92.25;99760.38;4851250;29;20064;-85
2022/12/09 01:10:45;;;;;;;0.75;0.75;;;;;;;-6.01;92.24;99770.66;4863326;29;20034;-82
2022/12/09 01:13:13;;;;;;;0.80;0.80;;;;;;;-5.98;92.03;99773.88;4855878;29;20056;-82
2022/12/09 01:15:41;;;;;;;0.82;0.82;;;;;;;-5.98;92.17;99767.78;4840146;29;20125;-83
2022/12/09 01:18:09;;;;;;;0.70;0.70;;;;;;;-5.95;92.05;99773.66;4854826;29;20056;-84
2022/12/09 01:20:37;;;;;;;0.82;0.82;;;;;;;-5.92;91.99;99777.81;4842597;29;20064;-84
2022/12/09 01:23:04;;;;;;;0.63;0.63;;;;;;;-5.89;91.91;99769.66;4843412;29;20050;-84
2022/12/09 01:25:31;;;;;;;0.75;0.75;;;;;;;-5.93;91.84;99760.34;4843666;29;20046;-85
2022/12/09 01:27:58;;;;;;;0.80;0.80;;;;;;;-5.95;91.54;99762.28;4844707;29;20118;-84
2022/12/09 01:30:26;;;;;;;0.80;0.80;;;;;;;-5.94;91.79;99758.72;4827461;29;20046;-83
2022/12/09 01:32:53;;;;;;;1.00;1.00;;;;;;;-5.93;91.64;99766.41;4813041;29;20172;-84
2022/12/09 01:35:20;;;;;;;0.80;0.80;;;;;;;-6.00;91.78;99759.19;4845039;29;20061;-84
2022/12/09 01:37:47;;;;;;;0.88;0.88;;;;;;;-6.04;91.83;99755.13;4853557;29;20064;-85
2022/12/09 01:40:16;;;;;;;0.95;0.95;;;;;;;-6.04;91.71;99752.50;4866033;29;20062;-86
2022/12/09 01:42:44;;;;;;;0.80;0.80;;;;;;;-6.07;91.55;99752.75;4859509;29;20077;-83
2022/12/09 01:45:20;;;;;;;1.00;1.00;;;;;;;-6.06;91.58;99746.53;4844560;29;20053;-84
2022/12/09 01:48:02;;;;;;;0.70;0.70;;;;;;;-6.08;91.50;99745.81;4845374;29;20058;-85
2022/12/09 01:50:31;;;;;;;0.93;0.93;;;;;;;-6.07;91.83;99742.25;4813183;29;20188;-85
2022/12/09 01:52:58;;;;;;;0.85;0.85;;;;;;;-6.06;91.63;99736.00;4844391;29;20050;-84
2022/12/09 01:55:26;;;;;;;0.70;0.70;;;;;;;-6.10;91.75;99740.69;4844328;29;20054;-85
2022/12/09 01:57:54;;;;;;;0.90;0.90;;;;;;;-6.07;91.83;99737.81;4827742;29;20060;-85
2022/12/09 02:00:21;;;;;;;0.80;0.80;;;;;;;-6.11;91.50;99731.94;4812744;29;20046;-86
2022/12/09 02:02:50;;;;;;;0.90;0.90;;;;;;;-6.04;91.81;99747.25;4842569;29;20061;-85
2022/12/09 02:05:18;;;;;;;1.00;1.00;;;;;;;-6.04;91.82;99734.09;4827875;29;20061;-85
2022/12/09 02:07:52;;;;;;;0.80;0.80;;;;;;;-6.04;91.87;99740.19;4843007;29;20438;-84
2022/12/09 02:10:19;;;;;;;0.90;0.90;;;;;;;-6.00;92.23;99732.88;4844289;29;20111;-84
2022/12/09 02:13:43;;;;;;;1.00;1.00;;;;;;;-5.99;92.11;99737.22;4830744;29;20050;-85
2022/12/09 02:16:15;;;;;;;0.90;0.90;;;;;;;-6.00;91.96;99732.88;4827812;29;20058;-86
2022/12/09 02:18:51;;;;;;;0.88;0.88;;;;;;;-6.01;92.15;99734.69;4827698;29;20061;-84
2022/12/09 02:21:41;;;;;;;0.90;0.90;;;;;;;-5.97;92.01;99737.94;4827747;29;20429;-85
2022/12/09 02:24:19;;;;;;;0.70;0.70;;;;;;;-5.97;92.22;99730.03;4857600;29;20105;-85
2022/12/09 02:26:54;;;;;;;0.70;0.70;;;;;;;-5.99;92.40;99737.22;4812483;29;20058;-84
2022/12/09 02:29:43;;;;;;;0.90;0.90;;;;;;;-5.99;92.30;99734.56;4796696;29;20118;-85
2022/12/09 02:32:38;;;;;;;0.80;0.80;;;;;;;-6.02;92.10;99734.81;4826649;29;20069;-85
2022/12/09 02:35:20;;;;;;;0.70;0.70;;;;;;;-6.05;92.39;99740.31;4825951;29;20058;-85
2022/12/09 02:38:04;;;;;;;0.75;0.75;;;;;;;-6.00;92.48;99738.16;4827085;29;20061;-86
2022/12/09 02:40:53;;;;;;;0.90;0.90;;;;;;;-6.00;92.59;99740.78;4841175;29;20054;-85
2022/12/09 02:43:25;;;;;;;0.95;0.95;;;;;;;-6.03;92.55;99738.41;4826461;29;20061;-85
2022/12/09 02:45:54;;;;;;;0.80;0.80;;;;;;;-6.07;92.72;99734.34;4824622;29;20058;-84
2022/12/09 02:48:25;;;;;;;0.80;0.80;;;;;;;-6.09;92.83;99734.47;4826338;29;20509;-83
2022/12/09 02:50:53;;;;;;;0.80;0.80;;;;;;;-6.09;93.29;99738.88;4842567;29;20085;-85
2022/12/09 02:53:22;;;;;;;0.98;0.98;;;;;;;-6.11;93.59;99729.31;4827805;29;20449;-83
2022/12/09 02:55:50;;;;;;;0.70;0.70;;;;;;;-6.08;93.84;99730.88;4827135;29;20394;-85
2022/12/09 02:58:18;;;;;;;0.70;0.70;;;;;;;-6.03;93.89;99731.34;4826706;29;20141;-85
2022/12/09 03:00:46;;;;;;;0.85;0.85;;;;;;;-5.99;94.19;99724.06;4840647;29;20513;-84
2022/12/09 03:03:15;;;;;;;0.90;0.90;;;;;;;-5.98;94.12;99720.47;4826505;29;20102;-84
2022/12/09 03:05:56;;;;;;;0.80;0.80;;;;;;;-5.94;94.33;99717.47;4842419;29;20082;-84
2022/12/09 03:08:41;;;;;;;0.73;0.73;;;;;;;-5.97;94.48;99730.88;4826386;29;20115;-83
2022/12/09 03:11:09;;;;;;;0.80;0.80;;;;;;;-5.96;94.51;99718.56;4842097;29;20090;-84
2022/12/09 03:13:46;;;;;;;0.60;0.60;;;;;;;-5.93;94.62;99721.75;4841961;29;20548;-82
2022/12/09 03:16:22;;;;;;;0.80;0.80;;;;;;;-5.93;94.84;99713.03;4842505;29;20054;-84
2022/12/09 03:19:06;;;;;;;0.60;0.60;;;;;;;-5.92;94.91;99707.66;4842533;29;20062;-83
2022/12/09 03:21:38;;;;;;;0.85;0.85;;;;;;;-5.93;94.91;99703.34;4842623;29;20149;-82
2022/12/09 03:24:07;;;;;;;0.80;0.80;;;;;;;-5.95;95.23;99699.19;4825671;29;20050;-83
2022/12/09 03:26:36;;;;;;;0.60;0.60;;;;;;;-5.97;95.35;99704.59;4840599;29;20046;-83
2022/12/09 03:29:10;;;;;;;0.73;0.73;;;;;;;-5.94;95.36;99714.84;4840276;29;20058;-83
2022/12/09 03:31:38;;;;;;;0.80;0.80;;;;;;;-5.90;95.54;99705.75;4825436;29;20099;-84
2022/12/09 03:34:06;;;;;;;0.75;0.75;;;;;;;-5.92;95.45;99699.78;4841628;29;20157;-82
2022/12/09 03:36:36;;;;;;;0.70;0.70;;;;;;;-5.90;95.81;99699.63;4809880;29;20596;-83
2022/12/09 03:39:10;;;;;;;0.80;0.80;;;;;;;-5.88;95.75;99697.72;4825093;29;20061;-84
2022/12/09 03:41:43;;;;;;;0.82;0.82;;;;;;;-5.88;95.89;99702.97;4825108;29;20505;-85
2022/12/09 03:44:15;;;;;;;0.80;0.80;;;;;;;-5.87;95.65;99696.78;4840624;29;20093;-85
2022/12/09 03:46:42;;;;;;;0.80;0.80;;;;;;;-5.84;95.91;99701.78;4824658;29;20073;-81
2022/12/09 03:49:10;;;;;;;0.65;0.65;;;;;;;-5.85;95.94;99700.09;4839902;29;20050;-80
2022/12/09 03:51:51;;;;;;;0.80;0.80;;;;;;;-5.84;95.90;99696.53;4825375;29;20172;-82
2022/12/09 03:54:52;;;;;;;0.70;0.70;;;;;;;-5.85;96.31;99700.09;4824750;29;20080;-83
2022/12/09 03:57:21;;;;;;;0.70;0.70;;;;;;;-5.87;96.09;99696.78;4766784;30;20613;-81
2022/12/09 03:59:56;;;;;;;0.90;0.90;;;;;;;-5.86;96.10;99698.44;4768513;30;20059;-83
2022/12/09 04:02:23;;;;;;;;;;;;;;;-5.88;96.23;99700.34;4767570;30;20055;-83
2022/12/09 04:04:52;;;;;;;0.80;0.80;;;;;;;-5.98;96.04;99696.81;4753901;30;19934;-85
2022/12/09 04:07:19;;;;;;;0.90;0.90;;;;;;;-5.96;96.14;99692.28;4768987;30;20094;-86
2022/12/09 04:09:46;;;;;;;0.80;0.80;;;;;;;-5.92;96.43;99694.50;4752841;30;20060;-85
2022/12/09 04:12:14;;;;;;;0.85;0.85;;;;;;;-5.93;96.22;99694.63;4769166;30;20085;-83
2022/12/09 04:14:41;;;;;;;0.90;0.90;;;;;;;-6.00;96.50;99688.22;4778921;30;20064;-90
2022/12/09 04:17:09;;;;;;;0.95;0.95;;;;;;;-5.96;96.57;99687.84;4750411;30;20089;-86
2022/12/09 04:19:37;;;;;;;0.70;0.70;;;;;;;-5.93;96.82;99692.00;4747594;30;20060;-88
2022/12/09 04:22:07;;;;;;;0.70;0.70;;;;;;;-5.97;96.92;99685.34;4766998;30;20105;-84
2022/12/09 04:24:34;;;;;;;0.75;0.75;;;;;;;-5.97;97.12;99690.63;4767300;30;20051;-84
2022/12/09 04:27:02;;;;;;;0.80;0.80;;;;;;;-5.95;97.02;99686.91;4766322;30;20466;-85
2022/12/09 04:29:29;;;;;;;0.90;0.90;;;;;;;-5.95;97.19;99675.53;4765814;30;20075;-85
2022/12/09 04:31:56;;;;;;;0.90;0.90;;;;;;;-5.93;97.20;99692.00;4775444;29;20055;-86
2022/12/09 04:34:23;;;;;;;0.80;0.80;;;;;;;-5.91;97.18;99685.66;4840512;29;20505;-85
2022/12/09 04:36:51;;;;;;;0.80;0.80;;;;;;;-5.92;97.22;99689.25;4832148;29;20091;-87
2022/12/09 04:39:18;;;;;;;0.80;0.80;;;;;;;-5.87;97.13;99691.53;4823981;29;20371;-85
2022/12/09 04:41:45;;;;;;;0.70;0.70;;;;;;;-5.82;97.33;99685.88;4840538;29;20130;-84
2022/12/09 04:44:12;;;;;;;0.90;0.90;;;;;;;-5.82;97.37;99680.59;4793734;29;20397;-83
2022/12/09 04:46:39;;;;;;;0.77;0.77;;;;;;;-5.79;97.10;99689.09;4839503;29;20060;-84
2022/12/09 04:49:07;;;;;;;0.90;0.90;;;;;;;-5.80;97.10;99689.22;4839846;29;20498;-82
2022/12/09 04:51:34;;;;;;;0.77;0.77;;;;;;;-5.78;97.01;99680.25;4845706;29;20060;-84
2022/12/09 04:54:06;;;;;;;0.68;0.68;;;;;;;-5.84;96.92;99667.59;4843434;29;20053;-82
2022/12/09 04:56:33;;;;;;;0.90;0.90;;;;;;;-5.86;97.10;99671.31;4838573;29;20517;-83
2022/12/09 04:59:00;;;;;;;0.70;0.70;;;;;;;-5.86;96.84;99677.41;4840076;29;20149;-80
2022/12/09 05:01:28;;;;;;;0.70;0.70;;;;;;;-5.88;96.94;99671.44;4838368;29;20054;-82
2022/12/09 05:03:58;;;;;;;0.88;0.88;;;;;;;-5.90;96.95;99662.81;4837394;29;20049;-82
2022/12/09 05:06:26;;;;;;;0.95;0.95;;;;;;;-5.84;97.24;99674.66;4822691;29;20080;-82
2022/12/09 05:08:55;;;;;;;0.60;0.60;;;;;;;-5.92;96.96;99672.66;4838577;29;20073;-83
2022/12/09 05:11:23;;;;;;;0.70;0.70;;;;;;;-5.98;97.25;99665.28;4823138;29;20143;-81
2022/12/09 05:13:53;;;;;;;0.60;0.60;;;;;;;-5.90;97.47;99665.44;4838992;29;20366;-83
2022/12/09 05:16:21;;;;;;;0.70;0.70;;;;;;;-5.79;97.25;99668.06;4841227;29;20285;-82
2022/12/09 05:18:48;;;;;;;0.60;0.60;;;;;;;-5.77;97.35;99662.66;4840579;29;20672;-82
2022/12/09 05:21:18;;;;;;;0.70;0.70;;;;;;;-5.74;97.20;99665.06;4839750;29;20058;-83
2022/12/09 05:23:45;;;;;;;0.70;0.70;;;;;;;-5.75;97.37;99663.38;4822985;29;20182;-81
2022/12/09 05:26:15;;;;;;;0.70;0.70;;;;;;;-5.71;97.26;99657.75;4838703;29;20073;-83
2022/12/09 05:28:43;;;;;;;0.60;0.60;;;;;;;-5.71;97.50;99665.66;4816766;29;20084;-83
2022/12/09 05:31:15;;;;;;;1.25;0.80;;;;;;;-5.66;97.43;99662.66;4854781;29;20154;-81
2022/12/09 05:33:44;;;;;;;0.50;0.50;;;;;;;-5.62;97.42;99658.81;4854511;29;20069;-81
2022/12/09 05:36:13;;;;;;;0.80;0.80;;;;;;;-5.60;97.13;99663.94;4837725;29;20385;-81
2022/12/09 05:38:41;;;;;;;0.70;0.70;;;;;;;-5.66;97.21;99652.97;4854220;29;20081;-81
2022/12/09 05:41:08;;;;;;;0.90;0.90;;;;;;;-5.76;97.12;99641.53;4852478;29;20049;-81
2022/12/09 05:43:37;;;;;;;0.80;0.80;;;;;;;-5.67;97.36;99651.31;4854094;29;20065;-81
2022/12/09 05:46:05;;;;;;;0.68;0.68;;;;;;;-5.69;96.98;99653.22;4834420;29;20146;-83
2022/12/09 05:48:33;;;;;;;0.63;0.63;;;;;;;-5.67;97.10;99659.19;4826852;29;20057;-83
2022/12/09 05:51:11;;;;;;;0.70;0.70;;;;;;;-5.63;97.09;99656.31;4836164;29;20066;-82
2022/12/09 05:53:38;;;;;;;0.80;0.80;;;;;;;-5.64;97.12;99655.47;4836342;29;20086;-83
2022/12/09 05:56:05;;;;;;;0.88;0.88;;;;;;;-5.66;96.86;99658.22;4840638;29;20125;-82
2022/12/09 05:58:33;;;;;;;0.80;0.80;;;;;;;-5.66;96.93;99654.75;4824081;29;20056;-85
2022/12/09 06:01:05;;;;;;;0.70;0.70;;;;;;;-5.65;96.74;99653.78;4835639;29;20490;-82
2022/12/09 06:03:33;;;;;;;0.80;0.80;;;;;;;-5.69;97.04;99649.75;4834241;29;20058;-82
2022/12/09 06:06:11;;;;;;;0.70;0.70;;;;;;;-5.60;97.00;99661.31;4836914;29;20137;-81
2022/12/09 06:08:40;;;;;;;0.70;0.70;;;;;;;-5.57;97.08;99648.75;4838827;29;20057;-81
2022/12/09 06:11:16;;;;;;;0.70;0.70;;;;;;;-5.57;96.91;99651.38;4839140;29;20144;-81
2022/12/09 06:13:44;;;;;;;0.70;0.70;;;;;;;-5.57;96.63;99646.13;4822983;29;20058;-81
2022/12/09 06:16:13;;;;;;;0.70;0.70;;;;;;;-5.54;96.54;99642.41;4838971;29;20471;-83
2022/12/09 06:18:40;;;;;;;0.75;0.75;;;;;;;-5.56;96.46;99637.28;4811324;29;20050;-81
2022/12/09 06:21:09;;;;;;;0.80;0.80;;;;;;;-5.50;96.18;99646.44;4827177;29;20050;-81
2022/12/09 06:23:39;;;;;;;0.73;0.73;;;;;;;-5.50;96.16;99641.19;4828877;29;20599;-82
2022/12/09 06:26:15;;;;;;;0.60;0.60;;;;;;;-5.43;96.04;99644.97;4838810;29;20153;-81
2022/12/09 06:28:42;;;;;;;0.70;0.70;;;;;;;-5.36;96.09;99635.63;4490603;29;9999766;-81
2022/12/09 06:31:10;;;;;;;0.60;0.60;;;;;;;-5.36;95.80;99633.00;4837954;29;20054;-82
2022/12/09 06:33:38;;;;;;;0.60;0.60;;;;;;;-5.32;95.63;99641.47;4838750;29;20057;-79
2022/12/09 06:36:22;;;;;;;0.70;0.70;;;;;;;-5.35;95.26;99633.81;4816523;29;20073;-82
2022/12/09 06:38:52;;;;;;;0.63;0.63;;;;;;;-5.33;95.15;99630.09;4826233;29;20053;-82
2022/12/09 06:41:21;;;;;;;0.68;0.68;;;;;;;-5.27;95.18;99632.22;4827554;29;20066;-82
2022/12/09 06:43:49;;;;;;;0.80;0.80;;;;;;;-5.29;94.81;99622.78;4836130;29;20406;-82
2022/12/09 06:46:24;;;;;;;0.70;0.70;;;;;;;-5.32;94.58;99623.88;4838742;29;20115;-80
2022/12/09 06:48:52;;;;;;;0.68;0.68;;;;;;;-5.34;94.32;99630.22;4838251;29;20080;-80
2022/12/09 06:51:22;;;;;;;0.77;0.77;;;;;;;-5.29;94.23;99622.78;4837367;29;20058;-82
2022/12/09 06:53:50;;;;;;;0.80;0.80;;;;;;;-5.24;94.09;99623.25;4837803;29;20065;-82
2022/12/09 06:56:18;;;;;;;0.70;0.70;;;;;;;-5.18;94.12;99627.16;4838919;29;20056;-81
2022/12/09 06:58:45;;;;;;;0.88;0.88;;;;;;;-5.23;94.17;99628.38;4838643;29;20070;-82
2022/12/09 07:01:21;;;;;;;0.75;0.75;;;;;;;-5.22;93.78;99623.94;4821820;29;20136;-82
2022/12/09 07:03:52;;;;;;;0.68;0.68;;;;;;;-5.21;93.50;99640.59;4807222;29;20061;-82
2022/12/09 07:06:26;;;;;;;0.80;0.80;;;;;;;-5.29;93.34;99644.69;4822705;29;20150;-83
2022/12/09 07:08:56;;;;;;;0.60;0.60;;;;;;;-5.28;93.73;99641.06;4837934;29;20513;-81
2022/12/09 07:11:24;;;;;;;0.73;0.73;;;;;;;-5.32;93.54;99644.09;4838512;29;20052;-81
2022/12/09 07:13:51;;;;;;;0.43;0.43;;;;;;;-5.27;93.65;99641.91;4838408;29;20053;-81
2022/12/09 07:16:18;;;;;;;0.75;0.75;;;;;;;-5.29;93.41;99628.03;4837697;29;20088;-83
2022/12/09 07:18:46;;;;;;;0.68;0.68;;;;;;;-5.21;93.24;99646.69;4836534;29;20057;-81
2022/12/09 07:21:17;;;;;;;0.80;0.80;;;;;;;-5.27;92.85;99632.22;4838271;29;20050;-81
2022/12/09 07:23:46;;;;;;;0.80;0.80;;;;;;;-5.25;92.98;99635.56;4798770;29;20077;-83
2022/12/09 07:26:15;;;;;;;0.88;0.88;;;;;;;-5.17;93.06;99639.34;4837622;29;20054;-80
2022/12/09 07:28:43;;;;;;;0.80;0.80;;;;;;;-5.16;92.88;99639.22;4847667;29;20612;-80
2022/12/09 07:31:24;;;;;;;0.68;0.68;;;;;;;-5.19;92.59;99630.75;4845858;29;20417;-81
2022/12/09 07:33:54;;;;;;;0.80;0.80;;;;;;;-5.20;92.46;99629.09;4826879;29;20058;-81
2022/12/09 07:36:25;;;;;;;0.75;0.75;;;;;;;-5.18;92.40;99635.06;4827327;29;20543;-80
2022/12/09 07:39:00;;;;;;;0.68;0.68;;;;;;;-5.17;92.23;99627.00;4829123;29;20057;-83
2022/12/09 07:41:28;;;;;;;0.70;0.70;;;;;;;-5.21;92.30;99625.63;4811160;29;20070;-81
2022/12/09 07:43:57;;;;;;;0.85;0.85;;;;;;;-5.15;92.23;99624.28;4794777;29;20050;-81
2022/12/09 07:46:26;;;;;;;0.90;0.90;;;;;;;-5.14;92.11;99632.03;4811552;29;20058;-81
2022/12/09 07:48:55;;;;;;;0.70;0.70;;;;;;;-5.16;91.95;99617.34;4825680;29;20817;-82
2022/12/09 07:51:23;;;;;;;0.93;0.93;;;;;;;-5.12;92.33;99624.00;4820755;29;20053;-82
2022/12/09 07:53:51;;;;;;;0.65;0.65;;;;;;;-5.12;92.35;99629.28;4836784;29;20054;-82
2022/12/09 07:56:21;;;;;;;0.70;0.70;;;;;;;-5.15;92.37;99629.53;4837434;29;20056;-82
2022/12/09 07:58:50;;;;;;;0.68;0.68;;;;;;;-5.12;92.53;99624.00;4820562;29;20433;-83
2022/12/09 08:01:19;;;;;;;0.70;0.70;;;;;;;-5.12;92.42;99613.47;4836813;29;20060;-83
2022/12/09 08:03:47;;;;;;;0.60;0.60;;;;;;;-5.10;92.46;99608.91;4836669;29;20050;-83
2022/12/09 08:06:17;;;;;;;0.77;0.77;;;;;;;-5.13;92.47;99596.84;4820766;29;20064;-83
2022/12/09 08:08:45;;;;;;;0.80;0.80;;;;;;;-5.11;92.26;99596.75;4836953;29;20255;-83
2022/12/09 08:11:16;;;;;;;0.60;0.60;;;;;;;-5.16;92.32;99580.50;4838224;29;20102;-82
2022/12/09 08:13:44;;;;;;;0.80;0.80;;;;;;;-5.16;92.67;99581.34;4843507;29;20581;-82
2022/12/09 08:16:13;;;;;;;0.60;0.60;;;;;;;-5.09;92.32;99581.63;4840721;29;20057;-82
2022/12/09 08:18:41;;;;;;;0.68;0.68;;;;;;;-5.02;92.71;99588.03;4840850;29;20053;-82
2022/12/09 08:21:19;;;;;;;0.70;0.70;;;;;;;-5.03;92.72;99571.41;4836577;29;20736;-82
2022/12/09 08:23:47;;;;;;;0.70;0.70;;;;;;;-4.98;92.46;99578.09;4820639;29;20057;-81
2022/12/09 08:26:18;;;;;;;0.60;0.60;;;;;;;-4.95;92.68;99559.41;4835742;29;20056;-81
2022/12/09 08:28:45;;;;;;;0.60;0.60;;;;;;;-4.84;92.52;99557.50;4819061;29;20503;-81
2022/12/09 08:31:22;;;;;;;0.50;0.50;;;;;;;-4.73;92.51;99553.13;4832695;29;20058;-82
2022/12/09 08:33:51;;;;;;;0.70;0.70;;;;;;;-4.71;92.23;99538.00;4827195;29;20060;-81
2022/12/09 08:36:22;;;;;;;0.70;0.70;;;;;;;-4.60;92.05;99543.19;4826699;29;20050;-81
2022/12/09 08:38:52;;;;;;;0.75;0.75;;;;;;;-4.60;92.10;99551.09;4819086;29;20082;-81
2022/12/09 08:41:33;;;;;;;0.73;0.73;;;;;;;-4.54;92.01;99541.81;4820365;29;20570;-82
2022/12/09 08:44:05;;;;;;;0.70;0.70;;;;;;;-4.52;91.94;99545.16;4813510;29;20054;-82
2022/12/09 08:46:34;;;;;;;0.70;0.70;;;;;;;-4.48;91.94;99543.88;4818733;29;20074;-81
2022/12/09 08:49:02;;;;;;;0.70;0.70;;;;;;;-4.45;91.79;99533.94;4785194;29;1260921;-82
2022/12/09 08:51:30;;;;;;;0.70;0.70;;;;;;;-4.43;91.35;99529.38;4835725;29;20089;-80
2022/12/09 08:53:58;;;;;;;0.80;0.80;;;;;;;-4.47;91.35;99535.84;4830206;29;20050;-81
2022/12/09 08:56:25;;;;;;;0.60;0.60;;;;;;;-4.53;91.44;99525.88;4828756;29;20073;-80
2022/12/09 08:58:53;;;;;;;0.70;0.70;;;;;;;-4.46;91.22;99526.97;4828257;29;20054;-81
2022/12/09 09:01:23;;;;;;;0.70;0.70;;;;;;;-4.50;91.05;99528.22;4835888;29;20057;-81
2022/12/09 09:03:51;;;;;;;0.70;0.70;;;;;;;-4.52;91.12;99524.06;4835627;29;20520;-82
2022/12/09 09:06:19;;;;;;;0.55;0.55;;;;;;;-4.48;91.00;99528.94;4836074;29;20134;-82
2022/12/09 09:08:46;;;;;;;0.60;0.60;;;;;;;-4.47;90.78;99521.84;4835989;29;20140;-82
2022/12/09 09:11:18;;;;;;;0.55;0.55;;;;;;;-4.55;90.41;99513.81;4836463;29;20134;-82
2022/12/09 09:13:47;;;;;;;0.60;0.60;;;;;;;-4.62;90.52;99511.69;4836180;29;20118;-83
2022/12/09 09:16:17;;;;;;;0.60;0.60;;;;;;;-4.63;90.24;99517.13;4836469;29;20058;-83
2022/12/09 09:18:45;;;;;;;0.80;0.80;;;;;;;-4.64;90.12;99518.06;4822116;29;20050;-83
2022/12/09 09:21:15;;;;;;;0.70;0.70;;;;;;;-4.67;90.19;99503.38;4835482;29;20060;-83
2022/12/09 09:23:43;;;;;;;0.70;0.70;;;;;;;-4.77;90.07;99517.47;4835871;29;20050;-83
2022/12/09 09:26:13;;;;;;;0.70;0.70;;;;;;;-4.75;90.04;99503.22;4836658;29;20053;-81
2022/12/09 09:28:40;;;;;;;0.70;0.70;;;;;;;-4.79;89.90;99497.34;4829671;29;20521;-82
2022/12/09 09:31:10;;;;;;;0.70;0.70;;;;;;;-4.76;89.96;99498.06;4836279;29;20054;-85
2022/12/09 09:33:38;;;;;;;0.70;0.70;;;;;;;-4.68;89.78;99488.53;4837045;29;20484;-81
2022/12/09 09:36:07;;;;;;;0.70;0.70;;;;;;;-4.54;90.02;99486.47;4855114;29;20450;-81
2022/12/09 09:38:38;;;;;;;0.57;0.57;;;;;;;-4.46;89.92;99478.72;4854668;29;20534;-82
2022/12/09 09:41:17;;;;;;;0.70;0.70;;;;;;;-4.33;89.36;99481.09;4838186;29;20114;-82
2022/12/09 09:43:46;;;;;;;0.70;0.70;;;;;;;-4.27;89.26;99483.19;4834862;29;20589;-83
2022/12/09 09:46:23;;;;;;;0.88;0.88;;;;;;;-4.25;88.98;99476.00;4839664;29;20425;-85
2022/12/09 09:48:51;;;;;;;0.70;0.70;;;;;;;-4.24;88.57;99470.56;4821526;29;20053;-82
2022/12/09 09:51:20;;;;;;;0.80;0.80;;;;;;;-4.17;88.48;99465.56;4841792;29;20121;-82
2022/12/09 09:53:49;;;;;;;0.80;0.80;;;;;;;-4.22;88.04;99465.16;4857392;29;20057;-81
2022/12/09 09:56:29;;;;;;;0.60;0.60;;;;;;;-4.22;88.13;99462.53;4842658;29;20156;-81
2022/12/09 09:59:25;;;;;;;0.80;0.80;;;;;;;-4.21;88.28;99454.47;4860838;29;20849;-81
2022/12/09 10:02:01;;;;;;;0.90;0.90;;;;;;;-4.16;87.89;99460.16;4860916;29;20125;-81
2022/12/09 10:04:56;;;;;;;0.70;0.70;;;;;;;-4.10;87.93;99453.50;4860103;29;20416;-81
2022/12/09 10:07:42;;;;;;;0.60;0.60;;;;;;;-4.08;87.53;99461.25;4860971;29;20077;-82
2022/12/09 10:10:15;;;;;;;0.80;0.80;;;;;;;-4.09;87.43;99455.16;4861002;29;20060;-81
2022/12/09 10:12:49;;;;;;;0.77;0.77;;;;;;;-4.12;87.32;99452.81;4860975;29;20065;-82
2022/12/09 10:15:27;;;;;;;0.73;0.73;;;;;;;-4.11;87.35;99451.00;4860484;29;20077;-81
2022/12/09 10:18:10;;;;;;;0.60;0.60;;;;;;;-4.07;87.32;99442.69;4859674;29;20061;-82
2022/12/09 10:20:38;;;;;;;0.60;0.60;;;;;;;-4.19;87.04;99446.44;4855373;29;20602;-81
2022/12/09 10:23:11;;;;;;;0.70;0.70;;;;;;;-4.17;87.39;99440.03;4833523;29;20528;-81
2022/12/09 10:25:48;;;;;;;0.80;0.80;;;;;;;-4.09;87.00;99449.88;4855353;29;20682;-82
2022/12/09 10:28:35;;;;;;;0.80;0.80;;;;;;;-4.12;87.06;99434.34;4850279;29;20557;-81
2022/12/09 10:31:03;;;;;;;0.75;0.75;;;;;;;-4.16;86.64;99423.25;4845400;29;20136;-82
2022/12/09 10:33:38;;;;;;;0.75;0.75;;;;;;;-4.37;86.54;99433.94;4846421;29;20053;-82
2022/12/09 10:36:19;;;;;;;0.70;0.70;;;;;;;-4.34;86.84;99437.28;4829899;29;20509;-81
2022/12/09 10:38:46;;;;;;;0.70;0.70;;;;;;;-4.26;86.94;99417.16;4844390;29;20061;-80
2022/12/09 10:44:26;;;;;;;0.70;0.70;;;;;;;-4.23;86.86;99416.03;4860734;29;20144;-82
2022/12/09 10:47:04;;;;;;;0.70;0.70;;;;;;;-4.16;86.77;99415.34;4860190;29;20053;-80
2022/12/09 10:49:33;;;;;;;0.88;0.88;;;;;;;-4.18;86.74;99409.41;4860087;29;20156;-81
2022/12/09 10:52:21;;;;;;;0.70;0.70;;;;;;;-4.22;86.51;99417.72;4838206;29;20544;-80
2022/12/09 10:54:48;;;;;;;0.70;0.70;;;;;;;-4.24;86.83;99411.75;4843062;29;20057;-82
2022/12/09 10:57:16;;;;;;;0.60;0.60;;;;;;;-4.21;86.68;99408.81;4841737;29;20584;-82
2022/12/09 11:00:20;;;;;;;0.77;0.77;;;;;;;-4.27;86.63;99415.50;4838947;29;20106;-83
2022/12/09 11:02:53;;;;;;;0.60;0.60;;;;;;;-4.30;86.55;99399.09;4751871;30;20052;-82
2022/12/09 11:05:28;;;;;;;0.80;0.80;;;;;;;-4.42;86.51;99396.63;4734809;30;20151;-83
2022/12/09 11:08:03;;;;;;;0.60;0.60;;;;;;;-4.34;86.56;99405.66;4742362;30;20106;-83
2022/12/09 11:10:31;;;;;;;0.63;0.63;;;;;;;-4.32;86.33;99404.53;4731472;30;20576;-82
2022/12/09 11:13:07;;;;;;;0.70;0.70;;;;;;;-4.29;86.47;99413.97;4731205;30;20082;-82
2022/12/09 11:15:34;;;;;;;0.70;0.70;;;;;;;-4.27;86.46;99402.31;4741891;30;20056;-82
2022/12/09 11:18:03;;;;;;;0.75;0.75;;;;;;;-4.35;86.12;99402.19;4747334;30;20100;-82
2022/12/09 11:20:32;;;;;;;0.80;0.80;;;;;;;-4.47;85.86;99392.75;4751064;30;20100;-83
2022/12/09 11:23:05;;;;;;;0.80;0.80;;;;;;;-4.46;86.22;99395.25;4758432;30;20075;-82
2022/12/09 11:25:35;;;;;;;0.70;0.70;;;;;;;-4.48;86.04;99391.94;4755725;30;20139;-83
2022/12/09 11:28:14;;;;;;;0.70;0.70;;;;;;;-4.45;86.27;99396.09;4720866;30;20109;-83
2022/12/09 11:30:53;;;;;;;0.73;0.73;;;;;;;-4.50;86.25;99403.59;4750371;30;20060;-83
2022/12/09 11:33:47;;;;;;;0.70;0.70;;;;;;;-4.53;86.21;99383.63;4744108;30;20427;-82
2022/12/09 11:36:26;;;;;;;0.70;0.70;;;;;;;-4.56;86.24;99386.50;4747020;30;20547;-83
2022/12/09 11:39:27;;;;;;;0.80;0.80;;;;;;;-4.54;86.29;99396.91;4817817;29;20152;-82
2022/12/09 11:42:12;;;;;;;0.75;0.75;;;;;;;-4.57;86.14;99387.47;4780784;29;20047;-83
2022/12/09 11:44:49;;;;;;;0.85;0.85;;;;;;;-4.58;86.32;99378.75;4788778;29;20149;-82
2022/12/09 11:47:23;;;;;;;0.68;0.68;;;;;;;-4.58;86.08;99370.03;4782548;29;20149;-83
2022/12/09 11:49:55;;;;;;;0.60;0.60;;;;;;;-4.65;86.26;99367.09;4781763;29;20066;-81
2022/12/09 11:52:26;;;;;;;0.90;0.90;;;;;;;-4.69;85.91;99368.34;4786916;29;20199;-82
2022/12/09 11:55:17;;;;;;;0.60;0.60;;;;;;;-4.68;86.02;99366.56;4806537;29;20059;-81
2022/12/09 11:57:51;;;;;;;0.73;0.73;;;;;;;-4.67;86.13;99369.03;4791833;29;20062;-80